N6150M KSAN-KLAX

Flight info

Callsign N6150M
Flight time N/A
Altitude 10000
Route OCN KELPS DANAH KRAUZ BALBO MIDDS SLI OLAAA2
Aircraft SF50/L-BDGRSWY/LB2U2

Departure

Time 2026-04-24 01:19
Airport San Diego International Airport (KSAN)

Arrival

Time N/A
Airport Los Angeles International Airport (KLAX)
Time Latitude Longitude Altitude Speed Heading
2026-04-24 00:57 32.73338 -117.17827 21 ft 0 kts 20°
2026-04-24 01:10 32.73337 -117.17827 23 ft 0 kts 20°
2026-04-24 01:15 32.73342 -117.17826 25 ft 3 kts 350°
2026-04-24 01:15 32.73355 -117.17859 10 ft 3 kts 283°
2026-04-24 01:15 32.73359 -117.17883 11 ft 3 kts 277°
2026-04-24 01:15 32.73360 -117.17892 13 ft 0 kts 277°
2026-04-24 01:16 32.73360 -117.17900 14 ft 6 kts 258°
2026-04-24 01:16 32.73317 -117.17959 15 ft 15 kts 198°
2026-04-24 01:16 32.73228 -117.17954 12 ft 13 kts 122°
2026-04-24 01:16 32.73206 -117.17868 12 ft 9 kts 107°
2026-04-24 01:17 32.73184 -117.17784 13 ft 12 kts 105°
2026-04-24 01:17 32.73166 -117.17704 13 ft 8 kts 103°
2026-04-24 01:17 32.73152 -117.17648 13 ft 7 kts 106°
2026-04-24 01:17 32.73129 -117.17582 12 ft 12 kts 131°
2026-04-24 01:18 32.73049 -117.17525 12 ft 14 kts 184°
2026-04-24 01:18 32.73026 -117.17610 11 ft 19 kts 285°
2026-04-24 01:18 32.73139 -117.18080 14 ft 99 kts 286°
2026-04-24 01:18 32.73370 -117.19007 404 ft 123 kts 288°
2026-04-24 01:19 32.73638 -117.20010 940 ft 135 kts 287°
2026-04-24 01:19 32.73954 -117.21115 1430 ft 144 kts 289°
2026-04-24 01:19 32.74335 -117.22180 2071 ft 148 kts 295°
2026-04-24 01:19 32.74831 -117.23402 2186 ft 175 kts 296°
2026-04-24 01:20 32.75377 -117.24736 2339 ft 188 kts 296°
2026-04-24 01:20 32.75948 -117.26120 2396 ft 177 kts 296°
2026-04-24 01:20 32.76582 -117.27355 3039 ft 168 kts 311°
2026-04-24 01:20 32.77431 -117.28297 3700 ft 169 kts 317°
2026-04-24 01:21 32.78325 -117.29191 3970 ft 176 kts 319°
2026-04-24 01:21 32.79260 -117.30134 4455 ft 184 kts 318°
2026-04-24 01:21 32.80268 -117.31159 4514 ft 192 kts 318°
2026-04-24 01:21 32.81303 -117.32166 4520 ft 192 kts 323°
2026-04-24 01:22 32.82529 -117.32805 4360 ft 199 kts 349°
2026-04-24 01:22 32.83868 -117.32317 3848 ft 220 kts 44°
2026-04-24 01:22 32.85093 -117.31309 3627 ft 211 kts 17°
2026-04-24 01:22 32.86477 -117.30880 3671 ft 199 kts 11°
2026-04-24 01:23 32.87733 -117.30544 4073 ft 178 kts 11°
2026-04-24 01:23 32.88935 -117.30222 4211 ft 178 kts 11°